Terminal Aerodrome Forecast
Issued by NWS Cleveland, OH

Home | Current Version | Previous Version | Graphics & Text | Print | Product List | Glossary On
Versions: 1 2 3 4 5 6 7 8 9 10 11 12 13 14 15
000
FTUS41 KCLE 230500
TAFERI
TAF
KERI 230530Z 2306/2406 18003KT P6SM SCT250
     FM231500 23007KT P6SM SCT250
     FM231800 30007KT P6SM SCT250
     FM240000 18005KT P6SM BKN250=

USA.gov is the U.S. government's official web portal to all federal, state and local government web resources and services.